• Join FlightAware (Why Join?)
  • Login
  • US Flag 
06:23AM EDT


 

Airport Tracker/Info


-or-


 

Live Flight TrackerFlight Track Log ✈ GJS3707 ✈ 19-May-2013 ✈ KBOI - KORD

Flight Track Log - Related Links

Times and Time Zones

All times are in EDT time to prevent confusion due to time zone crossing. See the GJS3707 flight status page for this flight to view local times or setup timezone preferences in your user account.

Time Position Orientation Groundspeed Altitude Reporting Facility
EDT Latitude Longitude Course Direction KTS MPH feet Rate Location/Type
03:31PM 43.5736 -116.2475 115° Southeast 154 177 3,800  Level Salt Lake Center
03:32PM 43.5936 -116.3144 292° West 178 205 5,900 2,220 Climbing Salt Lake Center
03:33PM 43.6450 -116.2961 14° North 216 249 8,400 2,040 Climbing Salt Lake Center
03:34PM 43.4138 -115.6155 113° Southeast  Level FlightAware Approximate
03:34PM 43.6336 -116.1969 99° East 249 287 10,200  Level Salt Lake Center
03:35PM 43.3744 -115.4676 104° East  Level FlightAware Approximate
03:35PM 43.6097 -116.0903 107° East 302 348 11,100  Level Salt Lake Center
03:36PM 43.3491 -115.3141 115° Southeast  Level FlightAware Approximate
03:36PM 43.5789 -115.9672 109° East 322 371 13,100  Level Salt Lake Center
03:37PM 43.5483 -115.8406 108° East 333 383 14,500 1,620 Climbing Salt Lake Center
03:38PM 43.5131 -115.7058 110° East 352 405 16,500 1,740 Climbing Salt Lake Center
03:39PM 43.4825 -115.5783 108° East 360 414 18,100 1,560 Climbing Salt Lake Center
03:40PM 43.4469 -115.4381 109° East 371 427 19,800 1,740 Climbing Salt Lake Center
03:41PM 43.4094 -115.2903 109° East 373 429 21,700 1,560 Climbing Salt Lake Center
03:42PM 43.3761 -115.1592 109° East 379 436 23,000 1,140 Climbing Salt Lake Center
03:43PM 43.3417 -115.0258 110° East 386 444 24,100 1,200 Climbing Salt Lake Center
03:44PM 43.3003 -114.8658 110° East 397 457 25,600 1,260 Climbing Salt Lake Center
03:45PM 43.2650 -114.7300 110° East 396 456 26,800 1,140 Climbing Salt Lake Center
03:46PM 43.2236 -114.5711 110° East 396 456 28,000 840 Climbing Salt Lake Center
03:47PM 43.1872 -114.4322 110° East 405 466 28,600 660 Climbing Salt Lake Center
03:48PM 43.1442 -114.2664 110° East 417 480 29,400 720 Climbing Salt Lake Center
03:49PM 43.1022 -114.1144 111° Southeast 423 487 30,100 660 Climbing Salt Lake Center
03:50PM 43.0603 -113.9625 111° Southeast 430 495 30,800 660 Climbing Salt Lake Center
03:51PM 43.0161 -113.7986 110° East 434 499 31,500 600 Climbing Salt Lake Center
03:52PM 42.9767 -113.6475 110° East 441 507 32,100 600 Climbing Salt Lake Center
03:53PM 42.9342 -113.4972 111° Southeast 445 512 32,800 720 Climbing Salt Lake Center
03:54PM 42.8875 -113.3236 110° East 439 505 33,600 540 Climbing Salt Lake Center
03:55PM 42.8444 -113.1717 111° Southeast 448 516 34,000 480 Climbing Salt Lake Center
03:56PM 42.7964 -112.9942 110° East 449 517 34,600 480 Climbing Salt Lake Center
03:58PM 42.7525 -112.8411 111° Southeast 453 521 35,000 180 Climbing Salt Lake Center
03:59PM 42.7006 -112.6600 111° Southeast 460 529 35,000  Level Salt Lake Center
04:00PM 42.6561 -112.5039 111° Southeast 462 532 35,000  Level Salt Lake Center
04:01PM 42.6094 -112.3417 111° Southeast 460 529 35,000  Level Salt Lake Center
04:02PM 42.5642 -112.1817 111° Southeast 457 526 35,000  Level Salt Lake Center
04:03PM 42.5172 -112.0228 112° Southeast 455 524 35,000  Level Salt Lake Center
04:04PM 42.4711 -111.8658 112° Southeast 451 519 35,000  Level Salt Lake Center
04:05PM 42.4242 -111.7081 112° Southeast 451 519 35,000  Level Salt Lake Center
04:06PM 42.3681 -111.5186 112° Southeast 452 520 35,000  Level Salt Lake Center
04:07PM 42.3217 -111.3617 112° Southeast 451 519 35,000  Level Salt Lake Center
04:08PM 42.2742 -111.2044 112° Southeast 451 519 35,000  Level Salt Lake Center
04:09PM 42.2267 -111.0472 112° Southeast 452 520 35,000  Level Salt Lake Center
04:10PM 42.1775 -110.8789 111° Southeast 452 520 35,000  Level Salt Lake Center
04:11PM 42.1314 -110.7306 113° Southeast 450 518 35,000  Level Salt Lake Center
04:12PM 42.0778 -110.5575 113° Southeast 450 518 35,000  Level Salt Lake Center
04:13PM 42.0322 -110.4083 112° Southeast 452 520 35,000  Level Salt Lake Center
04:14PM 41.9864 -110.2597 112° Southeast 450 518 35,000  Level Salt Lake Center
04:15PM 41.9706 -110.0742 96° East 454 522 35,000  Level Salt Lake Center
04:16PM 41.9736 -109.9150 88° East 448 516 35,000  Level Salt Lake Center
04:17PM 41.9764 -109.7258 89° East 452 520 35,000  Level Salt Lake Center
04:18PM 41.9781 -109.5658 89° East 448 516 35,000  Level Salt Lake Center
04:19PM 41.9803 -109.4047 89° East 448 516 35,000  Level Salt Lake Center
04:20PM 41.9822 -109.2197 89° East 444 511 35,000  Level Salt Lake Center
04:21PM 41.9836 -109.0608 89° East 444 511 35,000  Level Salt Lake Center
04:22PM 41.9858 -108.8747 89° East 443 510 35,000  Level Salt Lake Center
04:23PM 41.9869 -108.7161 89° East 444 511 35,000  Level Salt Lake Center
04:24PM 41.9878 -108.5561 90° East 445 512 35,000  Level Salt Lake Center
04:25PM 41.9892 -108.3719 89° East 442 509 35,000  Level Salt Lake Center
04:26PM 41.9892 -108.2142 90° East 441 507 35,000  Level Salt Lake Center
04:27PM 41.9875 -108.0281 91° East 446 513 35,000  Level Salt Lake Center
04:28PM 41.9869 -107.8686 90° East 446 513 35,000  Level Salt Lake Center
04:29PM 41.9861 -107.6844 90° East 442 509 35,000  Level Salt Lake Center
04:30PM 41.9858 -107.5247 90° East 445 512 35,000  Level Salt Lake Center
04:31PM 41.9842 -107.3686 91° East 439 505 35,000  Level Salt Lake Center
04:32PM 41.9839 -107.1844 90° East 441 507 35,000  Level Salt Lake Center
04:33PM 41.9819 -107.0289 91° East 437 503 35,000  Level Salt Lake Center
04:34PM 41.9786 -106.8461 91° East 440 506 35,000  Level Salt Lake Center
04:35PM 41.9769 -106.6892 91° East 440 506 35,000  Level Salt Lake Center
04:37PM 41.9772 -106.4919 90° East 440 506 35,000  Level Denver Center
04:38PM 41.9728 -106.3067 92° East 442 509 35,000  Level Denver Center
04:39PM 41.9700 -106.1489 91° East 444 511 35,000  Level Denver Center
04:40PM 41.9681 -105.9633 91° East 445 512 35,000  Level Denver Center
04:41PM 41.9633 -105.8044 92° East 446 513 35,000  Level Denver Center
04:42PM 41.9600 -105.6178 91° East 448 516 35,000  Level Denver Center
04:43PM 41.9567 -105.4583 92° East 449 517 35,000  Level Denver Center
04:44PM 41.9517 -105.2697 92° East 454 522 35,000  Level Denver Center
04:45PM 41.9478 -105.1119 92° East 446 513 35,000  Level Denver Center
04:46PM 41.9439 -104.9547 92° East 443 510 35,000  Level Denver Center
04:47PM 41.9383 -104.7703 92° East 445 512 35,000  Level Denver Center
04:48PM 41.9342 -104.6133 92° East 443 510 35,000  Level Denver Center
04:49PM 41.9278 -104.4269 93° East 450 518 35,000  Level Denver Center
04:50PM 41.9231 -104.2700 92° East 444 511 35,000  Level Denver Center
04:51PM 41.9167 -104.0842 93° East 447 514 35,000  Level Denver Center
04:52PM 41.9108 -103.9244 93° East 449 517 35,000  Level Denver Center
04:53PM 41.9036 -103.7389 93° East 448 516 35,000  Level Denver Center
04:54PM 41.8972 -103.5781 93° East 452 520 35,000  Level Denver Center
04:55PM 41.9067 -103.3906 86° East 460 529 35,000  Level Denver Center
04:56PM 41.9289 -103.2308 79° East 458 527 35,000  Level Denver Center
04:57PM 41.9461 -103.0694 82° East 460 529 35,000  Level Denver Center
04:58PM 41.9625 -102.8811 83° East 456 525 35,000  Level Denver Center
04:59PM 41.9781 -102.7186 83° East 459 528 35,000 240 Level Denver Center
05:00PM 41.9931 -102.5286 84° East 460 529 35,600 780 Climbing Denver Center
05:01PM 42.0092 -102.3672 82° East 456 525 36,600 660 Climbing Denver Center
05:02PM 42.0231 -102.1953 84° East 449 517 37,000 180 Climbing Denver Center
05:03PM 42.0364 -102.0375 83° East 444 511 37,000  Level Denver Center
05:04PM 42.0514 -101.8528 84° East 445 512 37,000  Level Denver Center
05:06PM 42.0639 -101.6911 84° East 450 518 37,000  Level Denver Center
05:07PM 42.0811 -101.4742 84° East 456 525 37,000  Level Denver Center
05:08PM 42.0933 -101.3119 84° East 456 525 37,000  Level Denver Center
05:09PM 42.1081 -101.1222 84° East 455 524 37,000  Level Denver Center
05:10PM 42.1264 -100.9614 81° East 452 520 37,000  Level Denver Center
05:11PM 42.1600 -100.7789 76° East 450 518 37,000  Level Denver Center
05:12PM 42.1847 -100.6172 78° East 457 526 37,000  Level Denver Center
05:13PM 42.2092 -100.4572 78° East 456 525 37,000  Level Denver Center
05:14PM 42.2267 -100.3281 80° East 456 525 37,000  Level Minneapolis Center
05:15PM 42.2506 -100.1267 81° East 454 522 37,000  Level Minneapolis Center
05:16PM 42.2778 -99.9261 80° East 452 520 37,000  Level Minneapolis Center
05:17PM 42.2894 -99.7539 85° East 458 527 37,000  Level Minneapolis Center
05:18PM 42.2992 -99.5800 86° East 460 529 37,000  Level Denver Center
05:19PM 42.3072 -99.4111 86° East 453 521 37,000  Level Denver Center
05:20PM 42.3133 -99.2794 86° East 447 514 37,000  Level Minneapolis Center
05:21PM 42.3242 -99.0736 86° East 455 524 37,000  Level Minneapolis Center
05:22PM 42.3314 -98.9019 87° East 457 526 37,000 240 Level Minneapolis Center
05:23PM 42.3400 -98.7272 86° East 463 533 37,600 720 Climbing Minneapolis Center
05:24PM 42.3481 -98.5250 89° East 450 518 38,600 660 Climbing Minneapolis Center
05:25PM 42.3432 -98.5125 89° East  Level FlightAware Approximate
05:25PM 42.3550 -98.3614 87° East 439 505 39,000  Level Minneapolis Center
05:26PM 42.3608 -98.1958 87° East 439 505 39,000  Level Minneapolis Center
05:27PM 42.3672 -98.0303 87° East 441 507 39,000  Level Minneapolis Center
05:28PM 42.3728 -97.8631 87° East 443 510 39,000  Level Minneapolis Center
05:29PM 42.3789 -97.6867 87° East 446 513 39,000  Level Minneapolis Center
05:30PM 42.3850 -97.5194 87° East 446 513 39,000  Level Minneapolis Center
05:31PM 42.3900 -97.3508 88° East 447 514 39,000  Level Minneapolis Center
05:32PM 42.3956 -97.1819 87° East 448 516 39,000  Level Minneapolis Center
05:33PM 42.4058 -97.0131 85° East 450 518 39,000  Level Minneapolis Center
05:35PM 42.4319 -96.8439 78° East 456 525 39,000  Level Minneapolis Center
05:36PM 42.4622 -96.6406 79° East 458 527 39,000  Level Minneapolis Center
05:37PM 42.4881 -96.4703 78° East 459 528 39,000  Level Minneapolis Center
05:38PM 42.5186 -96.3022 76° East 459 528 39,000  Level Minneapolis Center
05:39PM 42.5597 -96.1344 72° East 467 537 39,000  Level Minneapolis Center
05:40PM 42.5978 -95.9681 73° East 461 531 39,000  Level Minneapolis Center
05:41PM 42.6331 -95.7983 74° East 464 534 39,000  Level Minneapolis Center
05:42PM 42.6708 -95.6342 73° East 457 526 39,000  Level Minneapolis Center
05:43PM 42.6875 -95.4669 82° East 443 510 39,000  Level Minneapolis Center
05:44PM 42.6808 -95.2719 93° East 430 495 39,000  Level Minneapolis Center
05:45PM 42.6744 -95.1100 93° East 428 493 39,000  Level Minneapolis Center
05:46PM 42.6675 -94.9475 93° East 430 495 39,000  Level Minneapolis Center
05:47PM 42.6617 -94.8167 93° East 432 497 39,000  Level Minneapolis Center
05:48PM 42.6525 -94.6189 94° East 436 502 39,000  Level Minneapolis Center
05:49PM 42.6431 -94.4447 94° East 443 510 39,000  Level Minneapolis Center
05:50PM 42.6344 -94.2772 94° East 448 516 39,000  Level Minneapolis Center
05:51PM 42.6275 -94.1125 93° East 443 510 39,000  Level Minneapolis Center
05:52PM 42.6164 -93.9158 94° East 440 506 39,000  Level Minneapolis Center
05:53PM 42.6083 -93.7522 94° East 439 505 39,000  Level Minneapolis Center
05:54PM 42.5986 -93.5906 95° East 437 503 39,000  Level Minneapolis Center
05:55PM 42.5917 -93.4608 94° East 436 502 39,000  Level Minneapolis Center
05:56PM 42.5808 -93.2669 94° East 435 501 39,000  Level Minneapolis Center
05:57PM 42.5700 -93.1044 95° East 437 503 39,000  Level Minneapolis Center
05:58PM 42.5586 -92.9100 94° East 436 502 39,000 -240 Level Minneapolis Center
05:59PM 42.5492 -92.7497 95° East 432 497 38,600 -720 Descending Minneapolis Center
06:00PM 42.5383 -92.5861 95° East 438 504 37,600 -1,020 Descending Minneapolis Center
06:01PM 42.5269 -92.4192 95° East 447 514 36,600 -960 Descending Minneapolis Center
06:02PM 42.5158 -92.2528 95° East 449 517 35,700 -840 Descending Minneapolis Center
06:03PM 42.5019 -92.0556 95° East 447 514 34,900 -720 Descending Minneapolis Center
06:04PM 42.4978 -91.9892 95° East 446 513 34,700 -480 Descending Chicago Center
06:05PM 42.4853 -91.8258 96° East 444 511 34,200 -540 Descending Chicago Center
06:06PM 42.4739 -91.6622 95° East 446 513 33,600 -780 Descending Chicago Center
06:07PM 42.4594 -91.4650 96° East 449 517 32,700 -900 Descending Chicago Center
06:08PM 42.4467 -91.2992 96° East 450 518 31,800 -840 Descending Chicago Center
06:09PM 42.4347 -91.1400 96° East 438 504 31,000 -840 Descending Chicago Center
06:10PM 42.4225 -90.9825 96° East 429 494 30,100 -960 Descending Chicago Center
06:11PM 42.4092 -90.8197 96° East 438 504 29,100 -1,080 Descending Chicago Center
06:12PM 42.4094 -90.6150 90° East 465 535 27,900 -1,020 Descending Chicago Center
06:13PM 42.4278 -90.4394 82° East 475 547 27,100 -780 Descending Chicago Center
06:14PM 42.4456 -90.2700 82° East 464 534 26,300 -720 Descending Chicago Center
06:15PM 42.4628 -90.0992 82° East 462 532 25,700 -600 Descending Chicago Center
06:16PM 42.4622 -89.9117 90° East 468 539 25,100 -720 Descending Chicago Center
06:17PM 42.4531 -89.7411 94° East 455 524 24,300 -840 Descending Chicago Center
06:18PM 42.4431 -89.5725 95° East 451 519 23,400 -900 Descending Chicago Center
06:19PM 42.4325 -89.3814 94° East 440 506 22,500 -1,560 Descending Chicago Center
06:20PM 42.4225 -89.2203 95° East 431 496 20,200 -2,880 Descending Chicago Center
06:21PM 42.4122 -89.0631 95° East 424 488 16,600 -3,420 Descending Chicago Center
06:22PM 42.4019 -88.9019 95° East 429 494 13,300 -2,160 Descending Chicago Center
06:23PM 42.3981 -88.7592 92° East 383 441 12,200 -1,020 Descending Chicago Center
06:24PM 42.4383 -88.6428 65° Northeast 343 395 11,200 -1,080 Descending Chicago Center
06:25PM 42.4339 -88.5233 93° East 301 346 10,000 -1,080 Descending Chicago Center
06:26PM 42.4014 -88.4150 112° Southeast 307 353 9,000 -1,200 Descending Chicago Center
06:27PM 42.3553 -88.3289 126° Southeast 286 329 7,600 -1,020 Descending Chicago Center
06:28PM 42.2961 -88.2778 147° Southeast 269 310 7,000 -420 Descending Chicago Center
06:30PM 42.2375 -88.2136 141° Southeast 270 311 6,800 -720 Descending Chicago Center
06:31PM 42.1708 -88.1375 140° Southeast 265 305 5,600 -1,140 Descending Chicago Center
06:32PM 42.1242 -88.0844 140° Southeast 232 267 4,500 -1,140 Descending Chicago Center